sensor_id;sensor_type;location;lat;lon;timestamp;temperature;humidity
53146;DHT22;39042;53.150;5.898;2023-12-14T00:01:17;5.10;99.90
53146;DHT22;39042;53.150;5.898;2023-12-14T00:03:45;5.10;99.90
53146;DHT22;39042;53.150;5.898;2023-12-14T00:06:11;5.10;99.90
53146;DHT22;39042;53.150;5.898;2023-12-14T00:08:37;5.10;99.90
53146;DHT22;39042;53.150;5.898;2023-12-14T00:11:07;5.10;99.90
53146;DHT22;39042;53.150;5.898;2023-12-14T00:13:33;5.10;99.90
53146;DHT22;39042;53.150;5.898;2023-12-14T00:16:00;5.00;99.90
53146;DHT22;39042;53.150;5.898;2023-12-14T00:18:26;5.00;99.90
53146;DHT22;39042;53.150;5.898;2023-12-14T00:20:52;5.00;99.90
53146;DHT22;39042;53.150;5.898;2023-12-14T00:23:18;5.00;99.90
53146;DHT22;39042;53.150;5.898;2023-12-14T00:25:44;5.00;99.90
53146;DHT22;39042;53.150;5.898;2023-12-14T00:28:09;5.00;99.90
53146;DHT22;39042;53.150;5.898;2023-12-14T00:30:35;5.00;99.90
53146;DHT22;39042;53.150;5.898;2023-12-14T00:33:01;5.00;99.90
53146;DHT22;39042;53.150;5.898;2023-12-14T00:35:27;5.00;99.90
53146;DHT22;39042;53.150;5.898;2023-12-14T00:37:53;5.00;99.90
53146;DHT22;39042;53.150;5.898;2023-12-14T00:40:19;5.00;99.90
53146;DHT22;39042;53.150;5.898;2023-12-14T01:06:06;4.90;99.90
53146;DHT22;39042;53.150;5.898;2023-12-14T01:08:32;4.90;99.90
53146;DHT22;39042;53.150;5.898;2023-12-14T01:10:58;4.80;99.90
53146;DHT22;39042;53.150;5.898;2023-12-14T01:13:24;4.80;99.90
53146;DHT22;39042;53.150;5.898;2023-12-14T01:15:50;4.90;99.90
53146;DHT22;39042;53.150;5.898;2023-12-14T01:18:16;4.80;99.90
53146;DHT22;39042;53.150;5.898;2023-12-14T01:20:42;4.80;99.90
53146;DHT22;39042;53.150;5.898;2023-12-14T01:23:08;4.80;99.90
53146;DHT22;39042;53.150;5.898;2023-12-14T01:25:37;4.80;99.90
53146;DHT22;39042;53.150;5.898;2023-12-14T01:28:03;4.80;99.90
53146;DHT22;39042;53.150;5.898;2023-12-14T01:30:29;4.80;99.90
53146;DHT22;39042;53.150;5.898;2023-12-14T01:32:55;4.80;99.90
53146;DHT22;39042;53.150;5.898;2023-12-14T01:35:21;4.80;99.90
53146;DHT22;39042;53.150;5.898;2023-12-14T01:37:46;4.80;99.90
53146;DHT22;39042;53.150;5.898;2023-12-14T01:40:13;4.80;99.90
53146;DHT22;39042;53.150;5.898;2023-12-14T01:42:38;4.80;99.90
53146;DHT22;39042;53.150;5.898;2023-12-14T01:45:05;4.80;99.90
53146;DHT22;39042;53.150;5.898;2023-12-14T01:47:31;4.80;99.90
53146;DHT22;39042;53.150;5.898;2023-12-14T01:49:57;4.80;99.90
53146;DHT22;39042;53.150;5.898;2023-12-14T01:52:23;4.80;99.90
53146;DHT22;39042;53.150;5.898;2023-12-14T01:54:48;4.80;99.90
53146;DHT22;39042;53.150;5.898;2023-12-14T01:57:14;4.80;99.90
53146;DHT22;39042;53.150;5.898;2023-12-14T01:59:40;4.80;99.90
53146;DHT22;39042;53.150;5.898;2023-12-14T02:02:06;4.80;99.90
53146;DHT22;39042;53.150;5.898;2023-12-14T02:04:32;4.80;99.90
53146;DHT22;39042;53.150;5.898;2023-12-14T02:06:58;4.80;99.90
53146;DHT22;39042;53.150;5.898;2023-12-14T02:09:24;4.80;99.90
53146;DHT22;39042;53.150;5.898;2023-12-14T02:11:50;4.80;99.90
53146;DHT22;39042;53.150;5.898;2023-12-14T02:14:16;4.80;99.90
53146;DHT22;39042;53.150;5.898;2023-12-14T02:16:42;4.80;99.90
53146;DHT22;39042;53.150;5.898;2023-12-14T02:19:08;4.80;99.90
53146;DHT22;39042;53.150;5.898;2023-12-14T02:21:34;4.80;99.90
53146;DHT22;39042;53.150;5.898;2023-12-14T02:24:00;4.80;99.90
53146;DHT22;39042;53.150;5.898;2023-12-14T02:26:25;4.80;99.90
53146;DHT22;39042;53.150;5.898;2023-12-14T02:28:51;4.80;99.90
53146;DHT22;39042;53.150;5.898;2023-12-14T02:31:18;4.80;99.90
53146;DHT22;39042;53.150;5.898;2023-12-14T02:33:44;4.80;99.90
53146;DHT22;39042;53.150;5.898;2023-12-14T02:36:10;4.80;99.90
53146;DHT22;39042;53.150;5.898;2023-12-14T02:38:36;4.80;99.90
53146;DHT22;39042;53.150;5.898;2023-12-14T02:41:02;4.80;99.90
53146;DHT22;39042;53.150;5.898;2023-12-14T02:43:28;4.80;99.90
53146;DHT22;39042;53.150;5.898;2023-12-14T02:45:53;4.90;99.90
53146;DHT22;39042;53.150;5.898;2023-12-14T02:48:20;4.80;99.90
53146;DHT22;39042;53.150;5.898;2023-12-14T02:50:46;4.90;99.90
53146;DHT22;39042;53.150;5.898;2023-12-14T02:53:12;4.80;99.90
53146;DHT22;39042;53.150;5.898;2023-12-14T02:55:38;4.80;99.90
53146;DHT22;39042;53.150;5.898;2023-12-14T02:58:04;4.80;99.90
53146;DHT22;39042;53.150;5.898;2023-12-14T03:00:29;4.90;99.90
53146;DHT22;39042;53.150;5.898;2023-12-14T03:02:55;4.90;99.90
53146;DHT22;39042;53.150;5.898;2023-12-14T03:05:21;4.90;99.90
53146;DHT22;39042;53.150;5.898;2023-12-14T03:07:47;4.90;99.90
53146;DHT22;39042;53.150;5.898;2023-12-14T03:10:13;4.90;99.90
53146;DHT22;39042;53.150;5.898;2023-12-14T03:12:39;4.90;99.90
53146;DHT22;39042;53.150;5.898;2023-12-14T03:15:05;4.90;99.90
53146;DHT22;39042;53.150;5.898;2023-12-14T03:17:31;4.90;99.90
53146;DHT22;39042;53.150;5.898;2023-12-14T03:19:58;4.90;99.90
53146;DHT22;39042;53.150;5.898;2023-12-14T03:22:24;4.90;99.90
53146;DHT22;39042;53.150;5.898;2023-12-14T03:24:53;4.90;99.90
53146;DHT22;39042;53.150;5.898;2023-12-14T03:27:18;4.90;99.90
53146;DHT22;39042;53.150;5.898;2023-12-14T03:29:45;4.90;99.90
53146;DHT22;39042;53.150;5.898;2023-12-14T03:32:13;4.90;99.90
53146;DHT22;39042;53.150;5.898;2023-12-14T03:34:39;4.90;99.90
53146;DHT22;39042;53.150;5.898;2023-12-14T03:37:06;4.90;99.90
53146;DHT22;39042;53.150;5.898;2023-12-14T03:39:32;4.90;99.90
53146;DHT22;39042;53.150;5.898;2023-12-14T03:41:58;4.90;99.90
53146;DHT22;39042;53.150;5.898;2023-12-14T03:44:24;4.90;99.90
53146;DHT22;39042;53.150;5.898;2023-12-14T03:46:50;4.90;99.90
53146;DHT22;39042;53.150;5.898;2023-12-14T03:49:16;4.90;99.90
53146;DHT22;39042;53.150;5.898;2023-12-14T03:51:41;4.90;99.90
53146;DHT22;39042;53.150;5.898;2023-12-14T03:54:07;4.90;99.90
53146;DHT22;39042;53.150;5.898;2023-12-14T03:56:33;4.90;99.90
53146;DHT22;39042;53.150;5.898;2023-12-14T03:58:59;4.90;99.90
53146;DHT22;39042;53.150;5.898;2023-12-14T04:01:25;5.00;99.90
53146;DHT22;39042;53.150;5.898;2023-12-14T04:03:50;4.90;99.90
53146;DHT22;39042;53.150;5.898;2023-12-14T04:06:16;4.90;99.90
53146;DHT22;39042;53.150;5.898;2023-12-14T04:08:42;4.90;99.90
53146;DHT22;39042;53.150;5.898;2023-12-14T04:11:08;4.90;99.90
53146;DHT22;39042;53.150;5.898;2023-12-14T04:13:34;4.90;99.90
53146;DHT22;39042;53.150;5.898;2023-12-14T04:16:00;4.90;99.90
53146;DHT22;39042;53.150;5.898;2023-12-14T04:18:26;4.90;99.90
53146;DHT22;39042;53.150;5.898;2023-12-14T04:20:52;5.00;99.90
53146;DHT22;39042;53.150;5.898;2023-12-14T04:23:18;4.90;99.90
53146;DHT22;39042;53.150;5.898;2023-12-14T04:25:44;4.90;99.90
53146;DHT22;39042;53.150;5.898;2023-12-14T04:28:10;4.90;99.90
53146;DHT22;39042;53.150;5.898;2023-12-14T04:30:36;5.00;99.90
53146;DHT22;39042;53.150;5.898;2023-12-14T04:33:02;4.90;99.90
53146;DHT22;39042;53.150;5.898;2023-12-14T04:35:28;4.90;99.90
53146;DHT22;39042;53.150;5.898;2023-12-14T04:37:54;4.90;99.90
53146;DHT22;39042;53.150;5.898;2023-12-14T04:40:20;4.90;99.90
53146;DHT22;39042;53.150;5.898;2023-12-14T04:42:46;4.90;99.90
53146;DHT22;39042;53.150;5.898;2023-12-14T04:45:12;4.90;99.90
53146;DHT22;39042;53.150;5.898;2023-12-14T04:47:38;4.90;99.90
53146;DHT22;39042;53.150;5.898;2023-12-14T04:50:04;4.90;99.90
53146;DHT22;39042;53.150;5.898;2023-12-14T04:52:30;4.90;99.90
53146;DHT22;39042;53.150;5.898;2023-12-14T04:54:56;4.90;99.90
53146;DHT22;39042;53.150;5.898;2023-12-14T04:57:22;4.90;99.90
53146;DHT22;39042;53.150;5.898;2023-12-14T04:59:48;4.90;99.90
53146;DHT22;39042;53.150;5.898;2023-12-14T05:02:13;4.90;99.90
53146;DHT22;39042;53.150;5.898;2023-12-14T05:04:39;4.90;99.90
53146;DHT22;39042;53.150;5.898;2023-12-14T05:07:05;4.90;99.90
53146;DHT22;39042;53.150;5.898;2023-12-14T05:09:31;4.90;99.90
53146;DHT22;39042;53.150;5.898;2023-12-14T05:11:57;4.90;99.90
53146;DHT22;39042;53.150;5.898;2023-12-14T05:14:23;4.90;99.90
53146;DHT22;39042;53.150;5.898;2023-12-14T05:16:49;4.90;99.90
53146;DHT22;39042;53.150;5.898;2023-12-14T05:19:14;4.90;99.90
53146;DHT22;39042;53.150;5.898;2023-12-14T05:21:40;4.90;99.90
53146;DHT22;39042;53.150;5.898;2023-12-14T05:24:06;4.90;99.90
53146;DHT22;39042;53.150;5.898;2023-12-14T05:26:32;4.90;99.90
53146;DHT22;39042;53.150;5.898;2023-12-14T05:28:58;4.90;99.90
53146;DHT22;39042;53.150;5.898;2023-12-14T05:31:24;4.90;99.90
53146;DHT22;39042;53.150;5.898;2023-12-14T05:33:50;4.90;99.90
53146;DHT22;39042;53.150;5.898;2023-12-14T05:36:16;4.90;99.90
53146;DHT22;39042;53.150;5.898;2023-12-14T05:38:42;4.90;99.90
53146;DHT22;39042;53.150;5.898;2023-12-14T05:41:08;4.90;99.90
53146;DHT22;39042;53.150;5.898;2023-12-14T05:43:34;4.90;99.90
53146;DHT22;39042;53.150;5.898;2023-12-14T05:45:59;4.90;99.90
53146;DHT22;39042;53.150;5.898;2023-12-14T05:48:25;4.90;99.90
53146;DHT22;39042;53.150;5.898;2023-12-14T05:50:56;4.90;99.90
53146;DHT22;39042;53.150;5.898;2023-12-14T05:53:22;4.90;99.90
53146;DHT22;39042;53.150;5.898;2023-12-14T05:55:48;4.90;99.90
53146;DHT22;39042;53.150;5.898;2023-12-14T05:58:14;4.90;99.90
53146;DHT22;39042;53.150;5.898;2023-12-14T06:00:40;4.90;99.90
53146;DHT22;39042;53.150;5.898;2023-12-14T06:03:06;4.90;99.90
53146;DHT22;39042;53.150;5.898;2023-12-14T06:05:32;4.90;99.90
53146;DHT22;39042;53.150;5.898;2023-12-14T06:07:58;4.90;99.90
53146;DHT22;39042;53.150;5.898;2023-12-14T06:10:24;4.90;99.90
53146;DHT22;39042;53.150;5.898;2023-12-14T06:12:50;4.90;99.90
53146;DHT22;39042;53.150;5.898;2023-12-14T06:15:15;4.90;99.90
53146;DHT22;39042;53.150;5.898;2023-12-14T06:17:41;4.90;99.90
53146;DHT22;39042;53.150;5.898;2023-12-14T06:20:08;4.90;99.90
53146;DHT22;39042;53.150;5.898;2023-12-14T06:22:38;4.90;99.90
53146;DHT22;39042;53.150;5.898;2023-12-14T06:25:04;4.90;99.90
53146;DHT22;39042;53.150;5.898;2023-12-14T06:27:30;4.90;99.90
53146;DHT22;39042;53.150;5.898;2023-12-14T06:29:56;4.90;99.90
53146;DHT22;39042;53.150;5.898;2023-12-14T06:32:22;4.90;99.90
53146;DHT22;39042;53.150;5.898;2023-12-14T06:34:48;4.90;99.90
53146;DHT22;39042;53.150;5.898;2023-12-14T06:37:14;4.90;99.90
53146;DHT22;39042;53.150;5.898;2023-12-14T06:39:43;4.90;99.90
53146;DHT22;39042;53.150;5.898;2023-12-14T06:42:09;4.90;99.90
53146;DHT22;39042;53.150;5.898;2023-12-14T06:44:34;4.90;99.90
53146;DHT22;39042;53.150;5.898;2023-12-14T06:47:01;4.90;99.90
53146;DHT22;39042;53.150;5.898;2023-12-14T06:49:26;4.90;99.90
53146;DHT22;39042;53.150;5.898;2023-12-14T06:51:52;4.90;99.90
53146;DHT22;39042;53.150;5.898;2023-12-14T06:54:18;4.90;99.90
53146;DHT22;39042;53.150;5.898;2023-12-14T06:56:44;4.90;99.90
53146;DHT22;39042;53.150;5.898;2023-12-14T06:59:10;4.90;99.90
53146;DHT22;39042;53.150;5.898;2023-12-14T07:01:36;4.90;99.90
53146;DHT22;39042;53.150;5.898;2023-12-14T07:04:02;4.90;99.90
53146;DHT22;39042;53.150;5.898;2023-12-14T07:06:31;4.90;99.90
53146;DHT22;39042;53.150;5.898;2023-12-14T07:08:56;4.90;99.90
53146;DHT22;39042;53.150;5.898;2023-12-14T07:11:22;4.90;99.90
53146;DHT22;39042;53.150;5.898;2023-12-14T07:13:48;4.90;99.90
53146;DHT22;39042;53.150;5.898;2023-12-14T07:16:14;4.90;99.90
53146;DHT22;39042;53.150;5.898;2023-12-14T07:18:43;4.90;99.90
53146;DHT22;39042;53.150;5.898;2023-12-14T07:21:09;4.90;99.90
53146;DHT22;39042;53.150;5.898;2023-12-14T07:23:36;4.90;99.90
53146;DHT22;39042;53.150;5.898;2023-12-14T07:26:03;4.90;99.90
53146;DHT22;39042;53.150;5.898;2023-12-14T07:28:29;4.90;99.90
53146;DHT22;39042;53.150;5.898;2023-12-14T07:30:55;4.90;99.90
53146;DHT22;39042;53.150;5.898;2023-12-14T07:33:21;4.90;99.90
53146;DHT22;39042;53.150;5.898;2023-12-14T07:35:47;4.90;99.90
53146;DHT22;39042;53.150;5.898;2023-12-14T07:38:13;4.90;99.90
53146;DHT22;39042;53.150;5.898;2023-12-14T07:40:39;4.90;99.90
53146;DHT22;39042;53.150;5.898;2023-12-14T07:43:06;4.90;99.90
53146;DHT22;39042;53.150;5.898;2023-12-14T07:45:31;4.90;99.90
53146;DHT22;39042;53.150;5.898;2023-12-14T07:47:57;4.90;99.90
53146;DHT22;39042;53.150;5.898;2023-12-14T07:50:24;4.90;99.90
53146;DHT22;39042;53.150;5.898;2023-12-14T07:52:50;4.90;99.90
53146;DHT22;39042;53.150;5.898;2023-12-14T07:55:16;4.90;99.90
53146;DHT22;39042;53.150;5.898;2023-12-14T07:57:42;4.90;99.90
53146;DHT22;39042;53.150;5.898;2023-12-14T08:00:09;4.90;99.90
53146;DHT22;39042;53.150;5.898;2023-12-14T08:02:36;4.90;99.90
53146;DHT22;39042;53.150;5.898;2023-12-14T08:05:02;4.90;99.90
53146;DHT22;39042;53.150;5.898;2023-12-14T08:07:27;4.90;99.90
53146;DHT22;39042;53.150;5.898;2023-12-14T08:09:55;4.90;99.90
53146;DHT22;39042;53.150;5.898;2023-12-14T08:12:24;4.90;99.90
53146;DHT22;39042;53.150;5.898;2023-12-14T08:14:50;5.00;99.90
53146;DHT22;39042;53.150;5.898;2023-12-14T08:17:16;5.00;99.90
53146;DHT22;39042;53.150;5.898;2023-12-14T08:19:43;5.00;99.90
53146;DHT22;39042;53.150;5.898;2023-12-14T08:22:09;5.00;99.90
53146;DHT22;39042;53.150;5.898;2023-12-14T08:24:38;5.00;99.90
53146;DHT22;39042;53.150;5.898;2023-12-14T08:27:04;5.10;99.90
53146;DHT22;39042;53.150;5.898;2023-12-14T08:29:30;5.10;99.90
53146;DHT22;39042;53.150;5.898;2023-12-14T08:31:56;5.10;99.90
53146;DHT22;39042;53.150;5.898;2023-12-14T08:34:24;5.10;99.90
53146;DHT22;39042;53.150;5.898;2023-12-14T08:36:49;5.10;99.90
53146;DHT22;39042;53.150;5.898;2023-12-14T08:39:15;5.10;99.90
53146;DHT22;39042;53.150;5.898;2023-12-14T08:41:41;5.10;99.90
53146;DHT22;39042;53.150;5.898;2023-12-14T08:44:07;5.20;99.90
53146;DHT22;39042;53.150;5.898;2023-12-14T08:46:45;5.20;99.90
53146;DHT22;39042;53.150;5.898;2023-12-14T08:49:11;5.20;99.90
53146;DHT22;39042;53.150;5.898;2023-12-14T08:51:38;5.20;99.90
53146;DHT22;39042;53.150;5.898;2023-12-14T08:54:04;5.20;99.90
53146;DHT22;39042;53.150;5.898;2023-12-14T08:56:30;5.30;99.90
53146;DHT22;39042;53.150;5.898;2023-12-14T08:58:56;5.30;99.90
53146;DHT22;39042;53.150;5.898;2023-12-14T09:01:23;5.30;99.90
53146;DHT22;39042;53.150;5.898;2023-12-14T09:03:49;5.20;99.90
53146;DHT22;39042;53.150;5.898;2023-12-14T09:06:18;5.20;99.90
53146;DHT22;39042;53.150;5.898;2023-12-14T09:08:45;5.30;99.90
53146;DHT22;39042;53.150;5.898;2023-12-14T09:11:11;5.20;99.90
53146;DHT22;39042;53.150;5.898;2023-12-14T09:13:37;5.30;99.90
53146;DHT22;39042;53.150;5.898;2023-12-14T09:16:04;5.30;99.90
53146;DHT22;39042;53.150;5.898;2023-12-14T09:18:32;5.30;99.90
53146;DHT22;39042;53.150;5.898;2023-12-14T09:20:58;5.30;99.90
53146;DHT22;39042;53.150;5.898;2023-12-14T09:23:24;5.30;99.90
53146;DHT22;39042;53.150;5.898;2023-12-14T09:25:49;5.40;99.90
53146;DHT22;39042;53.150;5.898;2023-12-14T09:28:15;5.50;99.90
53146;DHT22;39042;53.150;5.898;2023-12-14T09:30:41;5.50;99.90
53146;DHT22;39042;53.150;5.898;2023-12-14T09:33:07;5.50;99.90
53146;DHT22;39042;53.150;5.898;2023-12-14T09:35:35;5.50;99.90
53146;DHT22;39042;53.150;5.898;2023-12-14T09:38:03;5.50;99.90
53146;DHT22;39042;53.150;5.898;2023-12-14T09:40:29;5.50;99.90
53146;DHT22;39042;53.150;5.898;2023-12-14T09:42:56;5.50;99.90
53146;DHT22;39042;53.150;5.898;2023-12-14T09:45:28;5.40;99.90
53146;DHT22;39042;53.150;5.898;2023-12-14T09:47:57;5.40;99.90
53146;DHT22;39042;53.150;5.898;2023-12-14T09:50:25;5.40;99.90
53146;DHT22;39042;53.150;5.898;2023-12-14T09:52:51;5.40;99.90
53146;DHT22;39042;53.150;5.898;2023-12-14T09:55:17;5.30;99.90
53146;DHT22;39042;53.150;5.898;2023-12-14T09:57:42;5.30;99.90
53146;DHT22;39042;53.150;5.898;2023-12-14T10:00:10;5.30;99.90
53146;DHT22;39042;53.150;5.898;2023-12-14T10:02:40;5.40;99.90
53146;DHT22;39042;53.150;5.898;2023-12-14T10:05:09;5.40;99.90
53146;DHT22;39042;53.150;5.898;2023-12-14T10:07:42;5.40;99.90
53146;DHT22;39042;53.150;5.898;2023-12-14T10:10:13;5.40;99.90
53146;DHT22;39042;53.150;5.898;2023-12-14T10:12:58;5.40;99.90
53146;DHT22;39042;53.150;5.898;2023-12-14T10:15:26;5.50;99.90
53146;DHT22;39042;53.150;5.898;2023-12-14T10:17:53;5.50;99.90
53146;DHT22;39042;53.150;5.898;2023-12-14T10:20:20;5.60;99.90
53146;DHT22;39042;53.150;5.898;2023-12-14T10:22:49;5.70;99.90
53146;DHT22;39042;53.150;5.898;2023-12-14T10:25:17;5.70;99.90
53146;DHT22;39042;53.150;5.898;2023-12-14T10:27:52;5.80;99.90
53146;DHT22;39042;53.150;5.898;2023-12-14T10:30:20;5.80;99.90
53146;DHT22;39042;53.150;5.898;2023-12-14T10:32:49;5.90;99.90
53146;DHT22;39042;53.150;5.898;2023-12-14T10:35:16;6.00;99.90
53146;DHT22;39042;53.150;5.898;2023-12-14T10:37:42;6.00;99.90
53146;DHT22;39042;53.150;5.898;2023-12-14T10:40:13;6.10;99.90
53146;DHT22;39042;53.150;5.898;2023-12-14T10:42:42;6.10;99.90
53146;DHT22;39042;53.150;5.898;2023-12-14T10:45:11;6.10;99.90
53146;DHT22;39042;53.150;5.898;2023-12-14T10:47:39;6.20;99.90
53146;DHT22;39042;53.150;5.898;2023-12-14T10:50:10;6.30;99.90
53146;DHT22;39042;53.150;5.898;2023-12-14T10:52:40;6.30;99.90
53146;DHT22;39042;53.150;5.898;2023-12-14T10:55:10;6.40;99.90
53146;DHT22;39042;53.150;5.898;2023-12-14T10:57:36;6.40;99.90
53146;DHT22;39042;53.150;5.898;2023-12-14T11:00:04;6.40;99.90
53146;DHT22;39042;53.150;5.898;2023-12-14T11:02:41;6.40;99.90
53146;DHT22;39042;53.150;5.898;2023-12-14T11:05:12;6.40;99.90
53146;DHT22;39042;53.150;5.898;2023-12-14T11:07:51;6.40;99.90
53146;DHT22;39042;53.150;5.898;2023-12-14T11:10:25;6.50;99.90
53146;DHT22;39042;53.150;5.898;2023-12-14T11:13:01;6.50;99.90
53146;DHT22;39042;53.150;5.898;2023-12-14T11:15:33;6.50;99.90
53146;DHT22;39042;53.150;5.898;2023-12-14T11:20:48;6.60;99.90
53146;DHT22;39042;53.150;5.898;2023-12-14T11:23:16;6.60;99.90
53146;DHT22;39042;53.150;5.898;2023-12-14T11:25:50;6.60;99.90
53146;DHT22;39042;53.150;5.898;2023-12-14T11:28:16;6.60;99.90
53146;DHT22;39042;53.150;5.898;2023-12-14T11:30:46;6.60;99.90
53146;DHT22;39042;53.150;5.898;2023-12-14T11:33:13;6.70;99.90
53146;DHT22;39042;53.150;5.898;2023-12-14T11:35:39;6.70;99.90
53146;DHT22;39042;53.150;5.898;2023-12-14T11:38:05;6.60;99.90
53146;DHT22;39042;53.150;5.898;2023-12-14T11:40:42;6.60;99.90
53146;DHT22;39042;53.150;5.898;2023-12-14T11:43:08;6.70;99.90
53146;DHT22;39042;53.150;5.898;2023-12-14T11:45:37;6.60;99.90
53146;DHT22;39042;53.150;5.898;2023-12-14T11:48:04;6.60;99.90
53146;DHT22;39042;53.150;5.898;2023-12-14T11:50:32;6.60;99.90
53146;DHT22;39042;53.150;5.898;2023-12-14T11:53:00;6.60;99.90
53146;DHT22;39042;53.150;5.898;2023-12-14T11:55:33;6.50;99.90
53146;DHT22;39042;53.150;5.898;2023-12-14T11:58:00;6.50;99.90
53146;DHT22;39042;53.150;5.898;2023-12-14T12:00:27;6.50;99.90
53146;DHT22;39042;53.150;5.898;2023-12-14T12:03:10;6.50;99.90
53146;DHT22;39042;53.150;5.898;2023-12-14T12:08:06;6.50;99.90
53146;DHT22;39042;53.150;5.898;2023-12-14T12:10:32;6.50;99.90
53146;DHT22;39042;53.150;5.898;2023-12-14T12:13:02;6.50;99.90
53146;DHT22;39042;53.150;5.898;2023-12-14T12:15:31;6.40;99.90
53146;DHT22;39042;53.150;5.898;2023-12-14T12:17:58;6.50;99.90
53146;DHT22;39042;53.150;5.898;2023-12-14T12:20:23;6.50;99.90
53146;DHT22;39042;53.150;5.898;2023-12-14T12:22:51;6.50;99.90
53146;DHT22;39042;53.150;5.898;2023-12-14T12:25:17;6.60;99.90
53146;DHT22;39042;53.150;5.898;2023-12-14T12:27:42;6.60;99.90
53146;DHT22;39042;53.150;5.898;2023-12-14T12:30:09;6.60;99.90
53146;DHT22;39042;53.150;5.898;2023-12-14T12:32:38;6.60;99.90
53146;DHT22;39042;53.150;5.898;2023-12-14T12:35:06;6.60;99.90
53146;DHT22;39042;53.150;5.898;2023-12-14T12:37:37;6.60;99.90
53146;DHT22;39042;53.150;5.898;2023-12-14T12:40:03;6.70;99.90
53146;DHT22;39042;53.150;5.898;2023-12-14T12:42:29;6.70;99.90
53146;DHT22;39042;53.150;5.898;2023-12-14T12:44:56;6.70;99.90
53146;DHT22;39042;53.150;5.898;2023-12-14T12:47:21;6.60;99.90
53146;DHT22;39042;53.150;5.898;2023-12-14T12:49:48;6.70;99.90
53146;DHT22;39042;53.150;5.898;2023-12-14T12:52:13;6.70;99.90
53146;DHT22;39042;53.150;5.898;2023-12-14T12:54:39;6.70;99.90
53146;DHT22;39042;53.150;5.898;2023-12-14T12:57:05;6.80;99.90
53146;DHT22;39042;53.150;5.898;2023-12-14T12:59:31;6.80;99.90
53146;DHT22;39042;53.150;5.898;2023-12-14T13:01:57;6.80;99.90
53146;DHT22;39042;53.150;5.898;2023-12-14T13:04:23;6.80;99.90
53146;DHT22;39042;53.150;5.898;2023-12-14T13:06:50;6.80;99.90
53146;DHT22;39042;53.150;5.898;2023-12-14T13:09:19;6.80;99.90
53146;DHT22;39042;53.150;5.898;2023-12-14T13:11:46;6.80;99.90
53146;DHT22;39042;53.150;5.898;2023-12-14T13:14:12;6.80;99.90
53146;DHT22;39042;53.150;5.898;2023-12-14T13:16:38;6.80;99.90
53146;DHT22;39042;53.150;5.898;2023-12-14T13:19:04;6.80;99.90
53146;DHT22;39042;53.150;5.898;2023-12-14T13:21:35;6.80;99.90
53146;DHT22;39042;53.150;5.898;2023-12-14T13:24:02;6.80;99.90
53146;DHT22;39042;53.150;5.898;2023-12-14T13:26:28;6.80;99.90
53146;DHT22;39042;53.150;5.898;2023-12-14T13:28:54;6.80;99.90
53146;DHT22;39042;53.150;5.898;2023-12-14T13:31:21;6.70;99.90
53146;DHT22;39042;53.150;5.898;2023-12-14T13:33:48;6.70;99.90
53146;DHT22;39042;53.150;5.898;2023-12-14T13:36:13;6.70;99.90
53146;DHT22;39042;53.150;5.898;2023-12-14T13:38:40;6.70;99.90
53146;DHT22;39042;53.150;5.898;2023-12-14T13:41:07;6.70;99.90
53146;DHT22;39042;53.150;5.898;2023-12-14T13:43:33;6.70;99.90
53146;DHT22;39042;53.150;5.898;2023-12-14T13:45:59;6.70;99.90
53146;DHT22;39042;53.150;5.898;2023-12-14T13:48:26;6.70;99.90
53146;DHT22;39042;53.150;5.898;2023-12-14T13:50:53;6.70;99.90
53146;DHT22;39042;53.150;5.898;2023-12-14T13:53:19;6.70;99.90
53146;DHT22;39042;53.150;5.898;2023-12-14T13:55:46;6.60;99.90
53146;DHT22;39042;53.150;5.898;2023-12-14T13:58:12;6.60;99.90
53146;DHT22;39042;53.150;5.898;2023-12-14T14:00:38;6.50;99.90
53146;DHT22;39042;53.150;5.898;2023-12-14T14:03:04;6.50;99.90
53146;DHT22;39042;53.150;5.898;2023-12-14T14:05:33;6.40;99.90
53146;DHT22;39042;53.150;5.898;2023-12-14T14:08:02;6.40;99.90
53146;DHT22;39042;53.150;5.898;2023-12-14T14:10:29;6.30;99.90
53146;DHT22;39042;53.150;5.898;2023-12-14T14:12:55;6.30;99.90
53146;DHT22;39042;53.150;5.898;2023-12-14T14:15:22;6.30;99.90
53146;DHT22;39042;53.150;5.898;2023-12-14T14:17:48;6.30;99.90
53146;DHT22;39042;53.150;5.898;2023-12-14T14:20:17;6.20;99.90
53146;DHT22;39042;53.150;5.898;2023-12-14T14:22:43;6.20;99.90
53146;DHT22;39042;53.150;5.898;2023-12-14T14:25:10;6.10;99.90
53146;DHT22;39042;53.150;5.898;2023-12-14T14:27:36;6.10;99.90
53146;DHT22;39042;53.150;5.898;2023-12-14T14:30:02;6.00;99.90
53146;DHT22;39042;53.150;5.898;2023-12-14T14:32:28;5.90;99.90
53146;DHT22;39042;53.150;5.898;2023-12-14T14:34:57;5.90;99.90
53146;DHT22;39042;53.150;5.898;2023-12-14T14:37:24;5.70;99.90
53146;DHT22;39042;53.150;5.898;2023-12-14T14:39:50;5.70;99.90
53146;DHT22;39042;53.150;5.898;2023-12-14T14:42:19;5.60;99.90
53146;DHT22;39042;53.150;5.898;2023-12-14T14:44:44;5.50;99.90
53146;DHT22;39042;53.150;5.898;2023-12-14T14:47:10;5.40;99.90
53146;DHT22;39042;53.150;5.898;2023-12-14T14:49:36;5.30;99.90
53146;DHT22;39042;53.150;5.898;2023-12-14T14:52:02;5.30;99.90
53146;DHT22;39042;53.150;5.898;2023-12-14T14:54:28;5.20;99.90
53146;DHT22;39042;53.150;5.898;2023-12-14T14:56:53;5.20;99.90
53146;DHT22;39042;53.150;5.898;2023-12-14T14:59:19;5.20;99.90
53146;DHT22;39042;53.150;5.898;2023-12-14T15:01:45;5.20;99.90
53146;DHT22;39042;53.150;5.898;2023-12-14T15:04:12;5.20;99.90
53146;DHT22;39042;53.150;5.898;2023-12-14T15:06:38;5.10;99.90
53146;DHT22;39042;53.150;5.898;2023-12-14T15:09:07;5.10;99.90
53146;DHT22;39042;53.150;5.898;2023-12-14T15:11:33;5.10;99.90
53146;DHT22;39042;53.150;5.898;2023-12-14T15:13:59;5.10;99.90
53146;DHT22;39042;53.150;5.898;2023-12-14T15:16:24;5.10;99.90
53146;DHT22;39042;53.150;5.898;2023-12-14T15:18:53;5.10;99.90
53146;DHT22;39042;53.150;5.898;2023-12-14T15:21:19;5.10;99.90
53146;DHT22;39042;53.150;5.898;2023-12-14T15:23:45;5.10;99.90
53146;DHT22;39042;53.150;5.898;2023-12-14T15:26:13;5.10;99.90
53146;DHT22;39042;53.150;5.898;2023-12-14T15:28:39;5.10;99.90
53146;DHT22;39042;53.150;5.898;2023-12-14T15:31:06;5.10;99.90
53146;DHT22;39042;53.150;5.898;2023-12-14T15:33:32;5.20;99.90
53146;DHT22;39042;53.150;5.898;2023-12-14T15:35:58;5.20;99.90
53146;DHT22;39042;53.150;5.898;2023-12-14T15:38:26;5.20;99.90
53146;DHT22;39042;53.150;5.898;2023-12-14T15:40:54;5.20;99.90
53146;DHT22;39042;53.150;5.898;2023-12-14T15:43:20;5.30;99.90
53146;DHT22;39042;53.150;5.898;2023-12-14T15:45:47;5.30;99.90
53146;DHT22;39042;53.150;5.898;2023-12-14T15:48:16;5.30;99.90
53146;DHT22;39042;53.150;5.898;2023-12-14T15:50:41;5.30;99.90
53146;DHT22;39042;53.150;5.898;2023-12-14T15:53:07;5.30;99.90
53146;DHT22;39042;53.150;5.898;2023-12-14T15:55:36;5.40;99.90
53146;DHT22;39042;53.150;5.898;2023-12-14T15:58:02;5.40;99.90
53146;DHT22;39042;53.150;5.898;2023-12-14T16:00:28;5.40;99.90
53146;DHT22;39042;53.150;5.898;2023-12-14T16:02:54;5.40;99.90
53146;DHT22;39042;53.150;5.898;2023-12-14T16:05:20;5.40;99.90
53146;DHT22;39042;53.150;5.898;2023-12-14T16:07:46;5.40;99.90
53146;DHT22;39042;53.150;5.898;2023-12-14T16:10:12;5.40;99.90